sensor_id;sensor_type;location;lat;lon;timestamp;temperature;humidity
32728;DHT22;55292;51.844;19.246;2022-11-15T00:02:24;4.90;99.90
32728;DHT22;55292;51.844;19.246;2022-11-15T00:07:47;5.00;99.90
32728;DHT22;55292;51.844;19.246;2022-11-15T00:13:15;5.00;99.90
32728;DHT22;55292;51.844;19.246;2022-11-15T00:18:37;5.00;99.90
32728;DHT22;55292;51.844;19.246;2022-11-15T00:23:59;5.00;99.90
32728;DHT22;55292;51.844;19.246;2022-11-15T00:29:19;5.00;99.90
32728;DHT22;55292;51.844;19.246;2022-11-15T00:34:41;5.00;99.90
32728;DHT22;55292;51.844;19.246;2022-11-15T00:40:02;5.00;99.90
32728;DHT22;55292;51.844;19.246;2022-11-15T00:45:23;5.00;99.90
32728;DHT22;55292;51.844;19.246;2022-11-15T00:50:45;4.90;99.90
32728;DHT22;55292;51.844;19.246;2022-11-15T00:56:06;4.90;99.90
32728;DHT22;55292;51.844;19.246;2022-11-15T01:01:27;4.90;99.90
32728;DHT22;55292;51.844;19.246;2022-11-15T01:06:49;4.70;99.90
32728;DHT22;55292;51.844;19.246;2022-11-15T01:12:11;4.70;99.90
32728;DHT22;55292;51.844;19.246;2022-11-15T01:17:32;4.80;99.90
32728;DHT22;55292;51.844;19.246;2022-11-15T01:22:53;4.80;99.90
32728;DHT22;55292;51.844;19.246;2022-11-15T01:28:15;4.80;99.90
32728;DHT22;55292;51.844;19.246;2022-11-15T01:33:36;4.80;99.90
32728;DHT22;55292;51.844;19.246;2022-11-15T01:38:58;4.60;99.90
32728;DHT22;55292;51.844;19.246;2022-11-15T01:55:24;4.70;99.90
32728;DHT22;55292;51.844;19.246;2022-11-15T02:00:45;4.80;99.90
32728;DHT22;55292;51.844;19.246;2022-11-15T02:06:08;4.80;99.90
32728;DHT22;55292;51.844;19.246;2022-11-15T02:11:30;4.70;99.90
32728;DHT22;55292;51.844;19.246;2022-11-15T02:34:56;4.70;99.90
32728;DHT22;55292;51.844;19.246;2022-11-15T02:45:50;4.80;99.90
32728;DHT22;55292;51.844;19.246;2022-11-15T02:51:13;4.80;99.90
32728;DHT22;55292;51.844;19.246;2022-11-15T02:56:34;4.80;99.90
32728;DHT22;55292;51.844;19.246;2022-11-15T03:07:36;4.70;99.90
32728;DHT22;55292;51.844;19.246;2022-11-15T03:18:40;4.60;99.90
32728;DHT22;55292;51.844;19.246;2022-11-15T03:24:03;4.60;99.90
32728;DHT22;55292;51.844;19.246;2022-11-15T03:29:34;4.60;99.90
32728;DHT22;55292;51.844;19.246;2022-11-15T03:35:06;4.40;99.90
32728;DHT22;55292;51.844;19.246;2022-11-15T03:40:55;4.60;99.90
32728;DHT22;55292;51.844;19.246;2022-11-15T03:47:01;4.50;99.90
32728;DHT22;55292;51.844;19.246;2022-11-15T03:52:24;4.50;99.90
32728;DHT22;55292;51.844;19.246;2022-11-15T03:57:48;4.50;99.90
32728;DHT22;55292;51.844;19.246;2022-11-15T04:03:09;4.40;99.90
32728;DHT22;55292;51.844;19.246;2022-11-15T04:08:30;4.60;99.90
32728;DHT22;55292;51.844;19.246;2022-11-15T04:13:51;4.60;99.90
32728;DHT22;55292;51.844;19.246;2022-11-15T04:19:13;4.60;99.90
32728;DHT22;55292;51.844;19.246;2022-11-15T04:24:52;4.70;99.90
32728;DHT22;55292;51.844;19.246;2022-11-15T04:30:14;4.70;99.90
32728;DHT22;55292;51.844;19.246;2022-11-15T04:35:35;4.70;99.90
32728;DHT22;55292;51.844;19.246;2022-11-15T04:40:56;4.70;99.90
32728;DHT22;55292;51.844;19.246;2022-11-15T04:46:17;4.70;99.90
32728;DHT22;55292;51.844;19.246;2022-11-15T04:51:38;4.70;99.90
32728;DHT22;55292;51.844;19.246;2022-11-15T04:56:59;4.70;99.90
32728;DHT22;55292;51.844;19.246;2022-11-15T05:02:21;4.70;99.90
32728;DHT22;55292;51.844;19.246;2022-11-15T05:07:42;4.70;99.90
32728;DHT22;55292;51.844;19.246;2022-11-15T05:13:03;4.70;99.90
32728;DHT22;55292;51.844;19.246;2022-11-15T05:18:24;4.70;99.90
32728;DHT22;55292;51.844;19.246;2022-11-15T05:23:45;4.70;99.90
32728;DHT22;55292;51.844;19.246;2022-11-15T05:29:08;4.70;99.90
32728;DHT22;55292;51.844;19.246;2022-11-15T05:34:30;4.50;99.90
32728;DHT22;55292;51.844;19.246;2022-11-15T05:39:51;4.50;99.90
32728;DHT22;55292;51.844;19.246;2022-11-15T05:45:12;4.40;99.90
32728;DHT22;55292;51.844;19.246;2022-11-15T05:50:34;4.40;99.90
32728;DHT22;55292;51.844;19.246;2022-11-15T05:55:57;4.40;99.90
32728;DHT22;55292;51.844;19.246;2022-11-15T06:01:18;4.40;99.90
32728;DHT22;55292;51.844;19.246;2022-11-15T06:06:39;4.40;99.90
32728;DHT22;55292;51.844;19.246;2022-11-15T06:12:01;4.40;99.90
32728;DHT22;55292;51.844;19.246;2022-11-15T06:17:22;4.40;99.90
32728;DHT22;55292;51.844;19.246;2022-11-15T06:22:44;4.30;99.90
32728;DHT22;55292;51.844;19.246;2022-11-15T06:28:05;4.30;99.90
32728;DHT22;55292;51.844;19.246;2022-11-15T06:33:26;4.30;99.90
32728;DHT22;55292;51.844;19.246;2022-11-15T06:38:47;4.40;99.90
32728;DHT22;55292;51.844;19.246;2022-11-15T06:44:08;4.40;99.90
32728;DHT22;55292;51.844;19.246;2022-11-15T06:49:29;4.50;99.90
32728;DHT22;55292;51.844;19.246;2022-11-15T06:54:50;4.60;99.90
32728;DHT22;55292;51.844;19.246;2022-11-15T07:00:12;4.60;99.90
32728;DHT22;55292;51.844;19.246;2022-11-15T07:05:33;4.60;99.90
32728;DHT22;55292;51.844;19.246;2022-11-15T07:10:57;4.60;99.90
32728;DHT22;55292;51.844;19.246;2022-11-15T07:16:19;4.70;99.90
32728;DHT22;55292;51.844;19.246;2022-11-15T07:21:40;4.70;99.90
32728;DHT22;55292;51.844;19.246;2022-11-15T07:27:01;4.80;99.90
32728;DHT22;55292;51.844;19.246;2022-11-15T07:32:23;4.80;99.90
32728;DHT22;55292;51.844;19.246;2022-11-15T07:37:44;4.80;99.90
32728;DHT22;55292;51.844;19.246;2022-11-15T07:43:06;4.90;99.90
32728;DHT22;55292;51.844;19.246;2022-11-15T07:48:28;5.00;99.90
32728;DHT22;55292;51.844;19.246;2022-11-15T07:54:02;5.10;99.90
32728;DHT22;55292;51.844;19.246;2022-11-15T07:59:24;5.10;99.90
32728;DHT22;55292;51.844;19.246;2022-11-15T08:04:45;5.00;99.90
32728;DHT22;55292;51.844;19.246;2022-11-15T08:10:06;5.10;99.90
32728;DHT22;55292;51.844;19.246;2022-11-15T08:15:29;5.30;99.90
32728;DHT22;55292;51.844;19.246;2022-11-15T08:20:50;5.30;99.90
32728;DHT22;55292;51.844;19.246;2022-11-15T08:26:11;5.40;99.90
32728;DHT22;55292;51.844;19.246;2022-11-15T08:31:32;5.50;99.90
32728;DHT22;55292;51.844;19.246;2022-11-15T08:36:53;5.60;99.90
32728;DHT22;55292;51.844;19.246;2022-11-15T08:42:15;5.80;99.90
32728;DHT22;55292;51.844;19.246;2022-11-15T08:47:40;6.00;99.90
32728;DHT22;55292;51.844;19.246;2022-11-15T08:53:08;6.10;99.90
32728;DHT22;55292;51.844;19.246;2022-11-15T08:58:29;6.20;99.90
32728;DHT22;55292;51.844;19.246;2022-11-15T09:03:50;6.40;99.90
32728;DHT22;55292;51.844;19.246;2022-11-15T09:09:11;6.50;99.90
32728;DHT22;55292;51.844;19.246;2022-11-15T09:14:33;6.50;99.90
32728;DHT22;55292;51.844;19.246;2022-11-15T09:19:54;6.60;99.90
32728;DHT22;55292;51.844;19.246;2022-11-15T09:25:15;6.60;99.90
32728;DHT22;55292;51.844;19.246;2022-11-15T09:30:36;6.40;99.90
32728;DHT22;55292;51.844;19.246;2022-11-15T09:36:05;6.50;99.90
32728;DHT22;55292;51.844;19.246;2022-11-15T09:53:00;7.00;99.90
32728;DHT22;55292;51.844;19.246;2022-11-15T09:58:23;7.20;99.90
32728;DHT22;55292;51.844;19.246;2022-11-15T10:03:34;7.20;99.90
32728;DHT22;55292;51.844;19.246;2022-11-15T10:13:47;7.50;99.90
32728;DHT22;55292;51.844;19.246;2022-11-15T10:24:13;7.70;99.90
32728;DHT22;55292;51.844;19.246;2022-11-15T10:29:19;7.80;99.90
32728;DHT22;55292;51.844;19.246;2022-11-15T10:34:28;7.90;99.90
32728;DHT22;55292;51.844;19.246;2022-11-15T10:39:31;8.00;99.90
32728;DHT22;55292;51.844;19.246;2022-11-15T10:44:42;8.10;99.90
32728;DHT22;55292;51.844;19.246;2022-11-15T10:49:54;8.20;99.90
32728;DHT22;55292;51.844;19.246;2022-11-15T10:55:30;8.10;99.90
32728;DHT22;55292;51.844;19.246;2022-11-15T11:00:37;8.30;99.90
32728;DHT22;55292;51.844;19.246;2022-11-15T11:05:44;8.30;99.90
32728;DHT22;55292;51.844;19.246;2022-11-15T11:11:00;8.20;99.90
32728;DHT22;55292;51.844;19.246;2022-11-15T11:43:25;8.80;99.90
32728;DHT22;55292;51.844;19.246;2022-11-15T11:48:45;9.00;99.90
32728;DHT22;55292;51.844;19.246;2022-11-15T11:54:03;9.00;99.90
32728;DHT22;55292;51.844;19.246;2022-11-15T11:59:35;9.00;99.90
32728;DHT22;55292;51.844;19.246;2022-11-15T12:04:40;8.90;99.90
32728;DHT22;55292;51.844;19.246;2022-11-15T12:15:17;9.00;99.90
32728;DHT22;55292;51.844;19.246;2022-11-15T12:20:23;9.00;99.90
32728;DHT22;55292;51.844;19.246;2022-11-15T12:25:55;8.90;99.90
32728;DHT22;55292;51.844;19.246;2022-11-15T12:31:14;8.90;99.90
32728;DHT22;55292;51.844;19.246;2022-11-15T12:41:35;8.90;99.90
32728;DHT22;55292;51.844;19.246;2022-11-15T13:23:01;8.90;99.90
32728;DHT22;55292;51.844;19.246;2022-11-15T13:33:17;9.00;99.90
32728;DHT22;55292;51.844;19.246;2022-11-15T13:38:29;8.80;99.90
32728;DHT22;55292;51.844;19.246;2022-11-15T13:43:35;8.80;99.90
32728;DHT22;55292;51.844;19.246;2022-11-15T13:48:42;8.50;99.90
32728;DHT22;55292;51.844;19.246;2022-11-15T13:53:51;8.40;99.90
32728;DHT22;55292;51.844;19.246;2022-11-15T13:58:54;8.40;99.90
32728;DHT22;55292;51.844;19.246;2022-11-15T14:03:59;8.40;99.90
32728;DHT22;55292;51.844;19.246;2022-11-15T14:14:14;8.10;99.90
32728;DHT22;55292;51.844;19.246;2022-11-15T14:24:30;7.80;99.90
32728;DHT22;55292;51.844;19.246;2022-11-15T14:29:33;7.50;99.90
32728;DHT22;55292;51.844;19.246;2022-11-15T14:34:36;7.30;99.90
32728;DHT22;55292;51.844;19.246;2022-11-15T14:39:39;7.10;99.90
32728;DHT22;55292;51.844;19.246;2022-11-15T14:44:41;6.80;99.90
32728;DHT22;55292;51.844;19.246;2022-11-15T14:49:47;6.90;99.90
32728;DHT22;55292;51.844;19.246;2022-11-15T14:54:50;6.40;99.90
32728;DHT22;55292;51.844;19.246;2022-11-15T14:59:52;6.50;99.90
32728;DHT22;55292;51.844;19.246;2022-11-15T15:04:55;6.30;99.90
32728;DHT22;55292;51.844;19.246;2022-11-15T15:09:57;6.10;99.90
32728;DHT22;55292;51.844;19.246;2022-11-15T15:15:47;5.80;99.90
32728;DHT22;55292;51.844;19.246;2022-11-15T15:20:57;5.60;99.90
32728;DHT22;55292;51.844;19.246;2022-11-15T15:26:02;5.40;99.90
32728;DHT22;55292;51.844;19.246;2022-11-15T15:31:05;5.10;99.90
32728;DHT22;55292;51.844;19.246;2022-11-15T15:36:12;5.00;99.90
32728;DHT22;55292;51.844;19.246;2022-11-15T15:41:16;5.20;99.90
32728;DHT22;55292;51.844;19.246;2022-11-15T15:46:19;5.20;99.90
32728;DHT22;55292;51.844;19.246;2022-11-15T15:51:22;5.10;99.90
32728;DHT22;55292;51.844;19.246;2022-11-15T15:56:25;5.10;99.90
32728;DHT22;55292;51.844;19.246;2022-11-15T16:01:27;5.10;99.90
32728;DHT22;55292;51.844;19.246;2022-11-15T16:06:40;5.00;99.90
32728;DHT22;55292;51.844;19.246;2022-11-15T16:11:46;5.20;99.90
32728;DHT22;55292;51.844;19.246;2022-11-15T16:16:49;5.40;99.90
32728;DHT22;55292;51.844;19.246;2022-11-15T16:21:52;5.40;99.90
32728;DHT22;55292;51.844;19.246;2022-11-15T16:26:54;5.50;99.90
32728;DHT22;55292;51.844;19.246;2022-11-15T16:31:57;5.50;99.90
32728;DHT22;55292;51.844;19.246;2022-11-15T16:36:59;5.50;99.90
32728;DHT22;55292;51.844;19.246;2022-11-15T16:42:02;5.50;99.90
32728;DHT22;55292;51.844;19.246;2022-11-15T16:47:09;5.50;99.90
32728;DHT22;55292;51.844;19.246;2022-11-15T16:52:14;5.50;99.90
32728;DHT22;55292;51.844;19.246;2022-11-15T16:57:22;5.30;99.90
32728;DHT22;55292;51.844;19.246;2022-11-15T17:02:24;5.30;99.90
32728;DHT22;55292;51.844;19.246;2022-11-15T17:07:27;5.10;99.90
32728;DHT22;55292;51.844;19.246;2022-11-15T17:12:30;5.30;99.90
32728;DHT22;55292;51.844;19.246;2022-11-15T17:17:32;5.30;99.90
32728;DHT22;55292;51.844;19.246;2022-11-15T17:22:36;5.20;99.90
32728;DHT22;55292;51.844;19.246;2022-11-15T17:27:38;6.10;99.90
32728;DHT22;55292;51.844;19.246;2022-11-15T17:32:42;5.70;99.90
32728;DHT22;55292;51.844;19.246;2022-11-15T17:37:44;5.00;99.90
32728;DHT22;55292;51.844;19.246;2022-11-15T17:42:48;5.00;99.90
32728;DHT22;55292;51.844;19.246;2022-11-15T17:47:51;4.90;99.90
32728;DHT22;55292;51.844;19.246;2022-11-15T17:52:55;4.90;99.90
32728;DHT22;55292;51.844;19.246;2022-11-15T17:57:58;5.00;99.90
32728;DHT22;55292;51.844;19.246;2022-11-15T18:03:01;5.00;99.90
32728;DHT22;55292;51.844;19.246;2022-11-15T18:08:04;5.00;99.90
32728;DHT22;55292;51.844;19.246;2022-11-15T18:13:06;5.00;99.90
32728;DHT22;55292;51.844;19.246;2022-11-15T18:18:09;4.90;99.90
32728;DHT22;55292;51.844;19.246;2022-11-15T18:23:11;5.00;99.90
32728;DHT22;55292;51.844;19.246;2022-11-15T18:28:14;4.90;99.90
32728;DHT22;55292;51.844;19.246;2022-11-15T18:33:16;4.90;99.90
32728;DHT22;55292;51.844;19.246;2022-11-15T18:38:20;5.00;99.90
32728;DHT22;55292;51.844;19.246;2022-11-15T18:43:23;5.00;99.90
32728;DHT22;55292;51.844;19.246;2022-11-15T18:48:28;4.90;99.90
32728;DHT22;55292;51.844;19.246;2022-11-15T18:53:32;4.80;99.90
32728;DHT22;55292;51.844;19.246;2022-11-15T18:58:42;4.70;99.90
32728;DHT22;55292;51.844;19.246;2022-11-15T19:03:48;4.70;99.90
32728;DHT22;55292;51.844;19.246;2022-11-15T19:08:53;4.70;99.90
32728;DHT22;55292;51.844;19.246;2022-11-15T19:13:56;4.80;99.90
32728;DHT22;55292;51.844;19.246;2022-11-15T19:19:06;4.80;99.90
32728;DHT22;55292;51.844;19.246;2022-11-15T19:24:09;4.90;99.90
32728;DHT22;55292;51.844;19.246;2022-11-15T19:29:12;4.90;99.90
32728;DHT22;55292;51.844;19.246;2022-11-15T19:34:18;4.80;99.90
32728;DHT22;55292;51.844;19.246;2022-11-15T19:39:21;4.90;99.90
32728;DHT22;55292;51.844;19.246;2022-11-15T19:44:24;4.80;99.90
32728;DHT22;55292;51.844;19.246;2022-11-15T19:49:28;4.80;99.90
32728;DHT22;55292;51.844;19.246;2022-11-15T19:54:30;4.80;99.90
32728;DHT22;55292;51.844;19.246;2022-11-15T19:59:33;4.80;99.90
32728;DHT22;55292;51.844;19.246;2022-11-15T20:04:43;5.00;99.90
32728;DHT22;55292;51.844;19.246;2022-11-15T20:09:45;4.90;99.90
32728;DHT22;55292;51.844;19.246;2022-11-15T20:14:48;4.70;99.90
32728;DHT22;55292;51.844;19.246;2022-11-15T20:19:50;4.80;99.90
32728;DHT22;55292;51.844;19.246;2022-11-15T20:24:53;4.90;99.90
32728;DHT22;55292;51.844;19.246;2022-11-15T20:29:55;5.00;99.90
32728;DHT22;55292;51.844;19.246;2022-11-15T20:34:59;5.00;99.90
32728;DHT22;55292;51.844;19.246;2022-11-15T20:40:02;5.10;99.90
32728;DHT22;55292;51.844;19.246;2022-11-15T20:45:05;5.10;99.90
32728;DHT22;55292;51.844;19.246;2022-11-15T20:50:08;5.20;99.90
32728;DHT22;55292;51.844;19.246;2022-11-15T20:55:31;5.20;99.90
32728;DHT22;55292;51.844;19.246;2022-11-15T21:00:34;5.20;99.90
32728;DHT22;55292;51.844;19.246;2022-11-15T21:05:39;5.20;99.90
32728;DHT22;55292;51.844;19.246;2022-11-15T21:10:42;5.20;99.90
32728;DHT22;55292;51.844;19.246;2022-11-15T21:16:04;5.30;99.90
32728;DHT22;55292;51.844;19.246;2022-11-15T21:21:07;5.30;99.90
32728;DHT22;55292;51.844;19.246;2022-11-15T21:26:09;5.30;99.90
32728;DHT22;55292;51.844;19.246;2022-11-15T21:31:12;5.30;99.90
32728;DHT22;55292;51.844;19.246;2022-11-15T21:36:14;5.30;99.90
32728;DHT22;55292;51.844;19.246;2022-11-15T21:41:17;5.30;99.90
32728;DHT22;55292;51.844;19.246;2022-11-15T21:46:20;5.30;99.90
32728;DHT22;55292;51.844;19.246;2022-11-15T21:51:23;5.20;99.90
32728;DHT22;55292;51.844;19.246;2022-11-15T21:56:26;5.20;99.90
32728;DHT22;55292;51.844;19.246;2022-11-15T22:01:30;5.30;99.90
32728;DHT22;55292;51.844;19.246;2022-11-15T22:06:51;5.30;99.90
32728;DHT22;55292;51.844;19.246;2022-11-15T22:11:54;5.30;99.90
32728;DHT22;55292;51.844;19.246;2022-11-15T22:16:57;5.20;99.90
32728;DHT22;55292;51.844;19.246;2022-11-15T22:21:59;5.20;99.90
32728;DHT22;55292;51.844;19.246;2022-11-15T22:27:02;5.10;99.90
32728;DHT22;55292;51.844;19.246;2022-11-15T22:32:05;4.90;99.90
32728;DHT22;55292;51.844;19.246;2022-11-15T22:37:08;4.90;99.90
32728;DHT22;55292;51.844;19.246;2022-11-15T22:42:26;5.30;99.90
32728;DHT22;55292;51.844;19.246;2022-11-15T22:47:29;5.00;99.90
32728;DHT22;55292;51.844;19.246;2022-11-15T22:52:31;4.80;99.90
32728;DHT22;55292;51.844;19.246;2022-11-15T22:57:34;4.80;99.90
32728;DHT22;55292;51.844;19.246;2022-11-15T23:02:39;4.80;99.90
32728;DHT22;55292;51.844;19.246;2022-11-15T23:07:44;4.90;99.90
32728;DHT22;55292;51.844;19.246;2022-11-15T23:12:47;4.90;99.90
32728;DHT22;55292;51.844;19.246;2022-11-15T23:18:08;4.90;99.90
32728;DHT22;55292;51.844;19.246;2022-11-15T23:23:11;5.00;99.90
32728;DHT22;55292;51.844;19.246;2022-11-15T23:28:14;4.90;99.90
32728;DHT22;55292;51.844;19.246;2022-11-15T23:33:17;4.80;99.90
32728;DHT22;55292;51.844;19.246;2022-11-15T23:38:38;4.80;99.90
32728;DHT22;55292;51.844;19.246;2022-11-15T23:43:40;4.70;99.90
32728;DHT22;55292;51.844;19.246;2022-11-15T23:48:43;4.70;99.90
32728;DHT22;55292;51.844;19.246;2022-11-15T23:53:46;4.70;99.90
32728;DHT22;55292;51.844;19.246;2022-11-15T23:58:49;4.70;99.90
